Time;durP1;ratioP1;P1;durP2;ratioP2;P2;SDS_P1;SDS_P2;PMS_P1;PMS_P2;Temp;Humidity;BMP_temperature;BMP_pressure;BME280_temperature;BME280_humidity;BME280_pressure;Samples;Min_cycle;Max_cycle;Signal;HPM_P1;HPM_P2
2022/12/21 00:00:20;;;;;;;26.10;14.50;;;;;;;;;;5055672;28;20049;-76
2022/12/21 00:02:46;;;;;;;24.15;13.77;;;;;;;;;;5057870;28;20049;-76
2022/12/21 00:05:13;;;;;;;31.40;14.77;;;;;;;;;;5055608;28;20064;-76
2022/12/21 00:07:39;;;;;;;29.55;14.98;;;;;;;;;;5054867;28;20105;-76
2022/12/21 00:10:05;;;;;;;54.22;17.92;;;;;;;;;;5056604;28;20540;-76
2022/12/21 00:12:31;;;;;;;30.85;15.02;;;;;;;;;;5062809;28;20418;-76
2022/12/21 00:14:57;;;;;;;33.00;14.80;;;;;;;;;;5058890;28;20459;-76
2022/12/21 00:17:23;;;;;;;117.57;17.83;;;;;;;;;;5059291;28;20051;-76
2022/12/21 00:19:49;;;;;;;33.25;14.82;;;;;;;;;;5058587;28;20102;-75
2022/12/21 00:22:15;;;;;;;55.17;15.02;;;;;;;;;;5057709;28;20052;-76
2022/12/21 00:24:41;;;;;;;47.20;15.63;;;;;;;;;;5057699;28;20083;-75
2022/12/21 00:27:07;;;;;;;98.25;16.88;;;;;;;;;;5055236;28;20060;-75
2022/12/21 00:29:33;;;;;;;76.93;16.60;;;;;;;;;;5054853;28;20067;-76
2022/12/21 00:31:59;;;;;;;58.92;14.45;;;;;;;;;;5057651;28;20040;-76
2022/12/21 00:34:25;;;;;;;84.03;15.60;;;;;;;;;;5054461;28;20765;-76
2022/12/21 00:36:51;;;;;;;46.92;13.50;;;;;;;;;;5048381;28;20076;-76
2022/12/21 00:39:18;;;;;;;40.78;13.45;;;;;;;;;;5059112;28;20387;-76
2022/12/21 00:41:44;;;;;;;39.03;12.80;;;;;;;;;;5060661;28;20456;-76
2022/12/21 00:44:10;;;;;;;42.92;13.52;;;;;;;;;;5060900;28;20488;-76
2022/12/21 00:46:36;;;;;;;42.55;13.80;;;;;;;;;;5059858;28;20041;-76
2022/12/21 00:49:04;;;;;;;42.50;13.48;;;;;;;;;;5061735;28;20045;-76
2022/12/21 00:51:31;;;;;;;77.68;16.40;;;;;;;;;;5058291;28;20455;-76
2022/12/21 00:53:58;;;;;;;71.72;14.52;;;;;;;;;;5063551;28;20033;-76
2022/12/21 00:56:25;;;;;;;55.85;13.82;;;;;;;;;;5064883;28;20040;-76
2022/12/21 00:58:51;;;;;;;51.50;13.60;;;;;;;;;;5065670;28;20426;-76
2022/12/21 01:01:18;;;;;;;54.45;12.95;;;;;;;;;;5060116;28;20043;-76
2022/12/21 01:03:45;;;;;;;26.52;11.13;;;;;;;;;;5063017;28;20079;-76
2022/12/21 01:06:15;;;;;;;19.45;10.45;;;;;;;;;;5053968;28;20044;-76
2022/12/21 01:08:41;;;;;;;21.08;10.65;;;;;;;;;;5065665;28;20045;-76
2022/12/21 01:11:07;;;;;;;31.40;12.68;;;;;;;;;;5056465;28;20037;-76
2022/12/21 01:13:33;;;;;;;22.58;11.90;;;;;;;;;;5058060;28;20040;-76
2022/12/21 01:15:59;;;;;;;25.15;11.02;;;;;;;;;;5053318;28;20048;-76
2022/12/21 01:18:26;;;;;;;26.38;11.13;;;;;;;;;;5055144;28;20213;-76
2022/12/21 01:20:54;;;;;;;25.17;11.07;;;;;;;;;;5053285;28;20471;-76
2022/12/21 01:23:20;;;;;;;21.80;11.13;;;;;;;;;;5051497;28;20059;-76
2022/12/21 01:25:50;;;;;;;25.35;12.00;;;;;;;;;;5053955;28;20056;-76
2022/12/21 01:28:16;;;;;;;22.77;10.65;;;;;;;;;;5054058;28;20051;-76
2022/12/21 01:30:43;;;;;;;22.52;9.68;;;;;;;;;;5055105;28;20076;-76
2022/12/21 01:33:13;;;;;;;20.85;10.13;;;;;;;;;;5055345;28;20037;-76
2022/12/21 01:35:40;;;;;;;18.65;9.25;;;;;;;;;;5058598;28;20085;-76
2022/12/21 01:38:06;;;;;;;20.80;8.38;;;;;;;;;;5058402;28;20152;-76
2022/12/21 01:40:32;;;;;;;23.70;7.72;;;;;;;;;;5052226;28;20071;-76
2022/12/21 01:42:59;;;;;;;20.73;6.60;;;;;;;;;;5059684;28;20040;-76
2022/12/21 01:45:27;;;;;;;20.60;6.90;;;;;;;;;;5063248;28;20497;-76
2022/12/21 01:47:58;;;;;;;15.90;5.85;;;;;;;;;;5058746;28;20048;-75
2022/12/21 01:50:27;;;;;;;26.13;7.30;;;;;;;;;;5056646;28;20082;-75
2022/12/21 01:52:54;;;;;;;14.65;6.60;;;;;;;;;;5060093;28;20072;-76
2022/12/21 01:55:21;;;;;;;21.00;8.65;;;;;;;;;;5061351;28;20126;-76
2022/12/21 01:57:47;;;;;;;18.33;7.50;;;;;;;;;;5060845;28;20036;-76
2022/12/21 02:00:13;;;;;;;16.30;7.43;;;;;;;;;;5061980;28;20063;-76
2022/12/21 02:02:43;;;;;;;16.13;8.68;;;;;;;;;;5065354;28;20688;-76
2022/12/21 02:05:17;;;;;;;17.73;10.10;;;;;;;;;;5062299;28;20093;-76
2022/12/21 02:07:44;;;;;;;19.33;10.75;;;;;;;;;;5052087;28;20051;-76
2022/12/21 02:10:10;;;;;;;16.98;10.02;;;;;;;;;;5050783;28;20048;-76
2022/12/21 02:12:37;;;;;;;18.77;9.68;;;;;;;;;;5053427;28;20042;-76
2022/12/21 02:15:03;;;;;;;17.17;10.38;;;;;;;;;;5062077;28;20056;-76
2022/12/21 02:18:04;;;;;;;20.58;10.85;;;;;;;;;;5060908;28;20045;-76
2022/12/21 02:20:45;;;;;;;18.65;10.32;;;;;;;;;;5004791;28;20104;-76
2022/12/21 02:23:28;;;;;;;17.27;10.85;;;;;;;;;;5070971;28;20056;-76
2022/12/21 02:25:54;;;;;;;20.67;11.90;;;;;;;;;;5063909;28;20041;-75
2022/12/21 02:28:34;;;;;;;18.45;10.70;;;;;;;;;;5056268;28;20065;-76
2022/12/21 02:31:19;;;;;;;17.67;11.55;;;;;;;;;;5063375;28;20087;-76
2022/12/21 02:34:04;;;;;;;15.48;10.68;;;;;;;;;;5063001;28;20552;-75
2022/12/21 02:36:44;;;;;;;14.35;10.23;;;;;;;;;;5054785;28;20056;-76
2022/12/21 02:39:10;;;;;;;13.75;10.52;;;;;;;;;;5059358;28;20141;-76
2022/12/21 02:41:39;;;;;;;14.82;10.70;;;;;;;;;;5059670;28;20476;-76
2022/12/21 02:44:15;;;;;;;15.18;10.55;;;;;;;;;;5064551;28;20055;-76
2022/12/21 02:46:43;;;;;;;15.38;10.82;;;;;;;;;;5065933;28;20127;-76
2022/12/21 02:49:13;;;;;;;17.35;11.25;;;;;;;;;;5063809;28;20124;-75
2022/12/21 02:51:42;;;;;;;13.85;10.70;;;;;;;;;;5065558;28;20048;-76
2022/12/21 02:54:08;;;;;;;13.32;11.00;;;;;;;;;;5065457;28;20488;-76
2022/12/21 02:56:35;;;;;;;15.07;12.23;;;;;;;;;;5058974;28;20130;-76
2022/12/21 02:59:01;;;;;;;16.98;10.98;;;;;;;;;;5065899;28;20127;-76
2022/12/21 03:01:30;;;;;;;16.60;11.68;;;;;;;;;;5057957;28;20045;-76
2022/12/21 03:04:04;;;;;;;15.40;11.13;;;;;;;;;;5066682;28;20036;-76
2022/12/21 03:06:42;;;;;;;15.77;10.85;;;;;;;;;;5068118;28;20511;-76
2022/12/21 03:09:17;;;;;;;15.65;11.55;;;;;;;;;;5062262;28;20483;-76
2022/12/21 03:11:49;;;;;;;17.85;11.40;;;;;;;;;;5065630;28;20044;-75
2022/12/21 03:14:22;;;;;;;14.32;11.18;;;;;;;;;;5061764;28;20048;-75
2022/12/21 03:16:48;;;;;;;;;;;;;;;;;;5062610;28;20074;-76
2022/12/21 03:19:14;;;;;;;14.38;10.95;;;;;;;;;;5066914;28;19963;-76
2022/12/21 03:21:43;;;;;;;17.20;11.52;;;;;;;;;;5069121;28;20052;-76
2022/12/21 03:24:26;;;;;;;15.93;11.45;;;;;;;;;;5065162;28;20113;-76
2022/12/21 03:26:56;;;;;;;15.60;11.23;;;;;;;;;;5058085;28;20043;-76
2022/12/21 03:29:25;;;;;;;17.00;11.77;;;;;;;;;;5062876;28;20110;-76
2022/12/21 03:31:54;;;;;;;15.35;11.35;;;;;;;;;;5059072;28;20053;-76
2022/12/21 03:34:23;;;;;;;15.55;10.70;;;;;;;;;;5062857;28;20059;-76
2022/12/21 03:37:09;;;;;;;16.13;10.90;;;;;;;;;;5064556;28;20044;-75
2022/12/21 03:39:37;;;;;;;12.20;9.98;;;;;;;;;;5053075;28;20040;-76
2022/12/21 03:42:09;;;;;;;17.17;10.52;;;;;;;;;;5060199;28;20444;-76
2022/12/21 03:44:47;;;;;;;13.98;10.50;;;;;;;;;;5065339;28;20072;-76
2022/12/21 03:47:18;;;;;;;16.15;10.43;;;;;;;;;;5062814;28;20040;-76
2022/12/21 03:49:50;;;;;;;17.42;10.18;;;;;;;;;;5056874;28;20058;-76
2022/12/21 03:52:18;;;;;;;19.20;10.40;;;;;;;;;;5064511;28;20055;-76
2022/12/21 03:54:44;;;;;;;17.17;10.65;;;;;;;;;;5057700;28;20054;-76
2022/12/21 03:57:11;;;;;;;18.70;10.10;;;;;;;;;;5071111;28;20052;-76
2022/12/21 03:59:39;;;;;;;17.00;10.40;;;;;;;;;;5061587;28;20050;-76
2022/12/21 04:02:08;;;;;;;17.33;9.82;;;;;;;;;;5065043;28;20057;-75
2022/12/21 04:04:42;;;;;;;17.98;10.25;;;;;;;;;;5067577;28;20040;-76
2022/12/21 04:07:09;;;;;;;18.70;10.65;;;;;;;;;;5051772;28;20060;-76
2022/12/21 04:09:37;;;;;;;17.42;10.88;;;;;;;;;;5056203;28;20396;-76
2022/12/21 04:14:47;;;;;;;16.17;10.55;;;;;;;;;;5052179;28;20052;-76
2022/12/21 04:17:13;;;;;;;19.42;10.68;;;;;;;;;;5056133;28;20097;-76
2022/12/21 04:19:57;;;;;;;20.80;11.15;;;;;;;;;;5062001;28;20119;-76
2022/12/21 04:28:09;;;;;;;19.67;12.00;;;;;;;;;;5057672;28;20724;-76
2022/12/21 04:30:36;;;;;;;17.55;11.43;;;;;;;;;;5058649;28;20040;-76
2022/12/21 04:33:03;;;;;;;20.85;11.45;;;;;;;;;;5058244;28;20103;-76
2022/12/21 04:35:29;;;;;;;19.52;12.48;;;;;;;;;;5059686;28;20117;-76
2022/12/21 04:37:55;;;;;;;16.73;11.60;;;;;;;;;;5057311;28;20045;-76
2022/12/21 04:40:21;;;;;;;19.48;12.43;;;;;;;;;;5059596;28;20033;-76
2022/12/21 04:42:51;;;;;;;14.30;11.82;;;;;;;;;;5053281;28;20072;-76
2022/12/21 04:45:17;;;;;;;18.23;12.23;;;;;;;;;;5059057;28;20044;-76
2022/12/21 04:47:43;;;;;;;16.10;11.25;;;;;;;;;;5056348;28;20048;-76
2022/12/21 04:50:10;;;;;;;17.27;11.93;;;;;;;;;;5055717;28;20056;-76
2022/12/21 04:52:36;;;;;;;20.20;11.93;;;;;;;;;;5061577;28;20032;-76
2022/12/21 04:55:02;;;;;;;21.20;11.95;;;;;;;;;;5060293;28;20079;-76
2022/12/21 04:57:29;;;;;;;18.25;11.82;;;;;;;;;;5068019;28;20174;-76
2022/12/21 04:59:55;;;;;;;20.33;12.27;;;;;;;;;;5071902;28;20052;-76
2022/12/21 05:02:21;;;;;;;18.38;12.02;;;;;;;;;;5071103;28;20499;-76
2022/12/21 05:04:47;;;;;;;19.48;12.15;;;;;;;;;;5071872;28;20044;-76
2022/12/21 05:07:13;;;;;;;17.58;11.63;;;;;;;;;;5070216;28;20044;-76
2022/12/21 05:09:39;;;;;;;16.98;12.13;;;;;;;;;;5073613;28;20135;-76
2022/12/21 05:12:06;;;;;;;17.58;11.48;;;;;;;;;;5069613;28;20045;-76
2022/12/21 05:14:32;;;;;;;18.27;11.90;;;;;;;;;;5073162;28;20048;-76
2022/12/21 05:16:58;;;;;;;15.13;11.57;;;;;;;;;;5068679;28;20041;-76
2022/12/21 05:19:24;;;;;;;22.85;12.98;;;;;;;;;;5070886;28;20426;-76
2022/12/21 05:21:51;;;;;;;22.20;12.82;;;;;;;;;;5066942;28;20175;-76
2022/12/21 05:24:17;;;;;;;20.58;12.30;;;;;;;;;;5066996;28;20075;-76
2022/12/21 05:26:43;;;;;;;17.50;12.15;;;;;;;;;;5065499;28;20561;-76
2022/12/21 05:29:10;;;;;;;17.55;12.48;;;;;;;;;;5064229;28;20069;-76
2022/12/21 05:31:36;;;;;;;17.70;12.93;;;;;;;;;;5060710;28;20053;-76
2022/12/21 05:34:02;;;;;;;19.10;12.38;;;;;;;;;;5061893;28;20044;-76
2022/12/21 05:36:29;;;;;;;28.33;13.50;;;;;;;;;;5063490;28;20645;-76
2022/12/21 05:38:56;;;;;;;25.95;13.20;;;;;;;;;;5064266;28;20408;-76
2022/12/21 05:41:22;;;;;;;25.42;14.43;;;;;;;;;;5056433;28;20502;-76
2022/12/21 05:43:48;;;;;;;20.55;13.45;;;;;;;;;;5061911;28;20070;-76
2022/12/21 05:46:14;;;;;;;26.80;12.88;;;;;;;;;;5053037;28;20517;-76
2022/12/21 05:48:40;;;;;;;17.00;11.43;;;;;;;;;;5053880;28;20048;-76
2022/12/21 05:51:07;;;;;;;19.55;12.40;;;;;;;;;;5065802;28;20059;-76
2022/12/21 05:53:33;;;;;;;20.48;12.82;;;;;;;;;;5059131;28;20037;-76
2022/12/21 05:55:59;;;;;;;20.90;12.23;;;;;;;;;;5058237;28;20101;-76
2022/12/21 05:58:25;;;;;;;17.75;11.80;;;;;;;;;;5053905;28;20169;-76
2022/12/21 06:00:52;;;;;;;17.20;11.75;;;;;;;;;;5054354;28;20492;-76
2022/12/21 06:03:18;;;;;;;24.83;13.05;;;;;;;;;;5057519;28;20053;-76
2022/12/21 06:05:44;;;;;;;16.92;11.30;;;;;;;;;;5064492;28;20476;-76
2022/12/21 06:08:10;;;;;;;14.95;10.45;;;;;;;;;;5057689;28;20047;-76
2022/12/21 06:10:37;;;;;;;17.48;10.52;;;;;;;;;;5056552;28;20052;-76
2022/12/21 06:13:03;;;;;;;13.63;9.27;;;;;;;;;;5058352;28;20090;-76
2022/12/21 06:15:29;;;;;;;15.48;9.85;;;;;;;;;;5051457;28;20048;-76
2022/12/21 06:17:56;;;;;;;21.70;12.80;;;;;;;;;;5057299;28;20408;-76
2022/12/21 06:20:22;;;;;;;18.73;10.73;;;;;;;;;;5066700;28;20044;-76
2022/12/21 06:22:48;;;;;;;14.43;9.20;;;;;;;;;;5067143;28;20507;-74
2022/12/21 06:25:14;;;;;;;15.45;10.45;;;;;;;;;;5064792;28;20033;-76
2022/12/21 06:27:40;;;;;;;15.63;10.20;;;;;;;;;;5064351;28;20469;-76
2022/12/21 06:30:07;;;;;;;13.35;10.00;;;;;;;;;;5059528;28;20388;-76
2022/12/21 06:32:33;;;;;;;15.88;9.95;;;;;;;;;;5054530;28;20182;-76
2022/12/21 06:34:59;;;;;;;13.75;9.45;;;;;;;;;;5060404;28;20052;-75
2022/12/21 06:37:25;;;;;;;14.45;8.70;;;;;;;;;;5056082;28;20186;-76
2022/12/21 06:39:51;;;;;;;15.07;9.13;;;;;;;;;;5057305;28;20475;-76
2022/12/21 06:42:17;;;;;;;12.27;8.95;;;;;;;;;;5059077;28;20055;-76
2022/12/21 06:44:43;;;;;;;14.13;9.35;;;;;;;;;;5059228;28;20052;-76
2022/12/21 06:47:09;;;;;;;14.43;9.00;;;;;;;;;;5058920;28;20120;-76
2022/12/21 06:49:35;;;;;;;12.63;8.25;;;;;;;;;;5061203;28;20365;-76
2022/12/21 06:52:01;;;;;;;11.07;8.07;;;;;;;;;;5066294;28;20564;-76
2022/12/21 06:54:27;;;;;;;11.52;8.40;;;;;;;;;;5067604;28;20124;-75
2022/12/21 06:56:53;;;;;;;15.18;8.25;;;;;;;;;;5064617;28;20120;-76
2022/12/21 06:59:22;;;;;;;11.25;7.85;;;;;;;;;;5068430;28;20048;-76
2022/12/21 07:01:48;;;;;;;11.73;8.35;;;;;;;;;;5066344;28;20124;-76
2022/12/21 07:04:14;;;;;;;12.07;7.28;;;;;;;;;;5055888;28;20041;-76
2022/12/21 07:06:41;;;;;;;11.50;8.00;;;;;;;;;;5064732;28;20539;-76
2022/12/21 07:09:07;;;;;;;14.52;7.72;;;;;;;;;;5066701;28;20052;-76
2022/12/21 07:11:33;;;;;;;13.57;8.25;;;;;;;;;;5060149;28;20060;-76
2022/12/21 07:14:00;;;;;;;16.33;8.60;;;;;;;;;;5071514;28;20043;-76
2022/12/21 07:16:26;;;;;;;17.73;8.35;;;;;;;;;;5066632;28;20506;-76
2022/12/21 07:18:53;;;;;;;15.77;8.43;;;;;;;;;;5067144;28;20082;-76
2022/12/21 07:21:22;;;;;;;18.08;9.55;;;;;;;;;;5054100;28;20072;-76
2022/12/21 07:23:48;;;;;;;17.20;8.57;;;;;;;;;;5066458;28;20036;-76
2022/12/21 07:26:16;;;;;;;19.92;9.52;;;;;;;;;;5061418;28;20181;-76
2022/12/21 07:28:45;;;;;;;17.92;8.63;;;;;;;;;;5062625;28;20036;-76
2022/12/21 07:31:13;;;;;;;14.10;8.85;;;;;;;;;;5059705;28;20079;-76
2022/12/21 07:33:43;;;;;;;21.90;9.55;;;;;;;;;;5064249;28;20488;-76
2022/12/21 07:36:09;;;;;;;18.85;9.73;;;;;;;;;;5058260;28;20441;-76
2022/12/21 07:38:36;;;;;;;23.33;9.18;;;;;;;;;;5060624;28;20064;-76
2022/12/21 07:41:04;;;;;;;17.98;8.77;;;;;;;;;;5065001;28;20063;-75
2022/12/21 07:43:30;;;;;;;22.55;9.57;;;;;;;;;;5059261;28;20040;-75
2022/12/21 07:45:56;;;;;;;20.52;9.18;;;;;;;;;;5061843;28;20049;-75
2022/12/21 07:48:22;;;;;;;21.58;9.70;;;;;;;;;;5070500;28;20044;-75
2022/12/21 07:50:50;;;;;;;17.92;9.32;;;;;;;;;;5072120;28;20063;-75
2022/12/21 07:53:16;;;;;;;18.48;8.93;;;;;;;;;;5070471;28;20055;-75
2022/12/21 07:55:42;;;;;;;22.25;8.85;;;;;;;;;;5068535;28;20175;-75
2022/12/21 07:58:08;;;;;;;22.63;8.85;;;;;;;;;;5062684;28;20064;-75
2022/12/21 08:00:35;;;;;;;16.48;8.73;;;;;;;;;;5071724;28;20049;-76
2022/12/21 08:03:01;;;;;;;18.77;8.23;;;;;;;;;;5070818;28;20047;-75
2022/12/21 08:05:27;;;;;;;19.77;9.13;;;;;;;;;;5067753;28;20045;-76
2022/12/21 08:07:54;;;;;;;14.60;7.70;;;;;;;;;;5069125;28;20041;-75
2022/12/21 08:10:20;;;;;;;18.80;8.27;;;;;;;;;;5062271;28;20071;-76
2022/12/21 08:12:46;;;;;;;20.40;8.45;;;;;;;;;;5063746;28;20041;-75
2022/12/21 08:15:12;;;;;;;17.55;8.32;;;;;;;;;;5060648;28;20625;-76
2022/12/21 08:17:38;;;;;;;20.17;7.82;;;;;;;;;;5063801;28;20068;-75
2022/12/21 08:20:05;;;;;;;19.38;7.82;;;;;;;;;;5071239;28;20121;-75
2022/12/21 08:22:31;;;;;;;23.70;8.02;;;;;;;;;;5066727;28;20051;-76
2022/12/21 08:24:57;;;;;;;26.33;9.75;;;;;;;;;;5057328;28;20040;-76
2022/12/21 08:27:23;;;;;;;20.33;8.73;;;;;;;;;;5071103;28;20506;-76
2022/12/21 08:29:49;;;;;;;27.42;9.60;;;;;;;;;;5065164;28;20051;-77
2022/12/21 08:32:18;;;;;;;23.55;9.23;;;;;;;;;;5064296;28;20100;-76
2022/12/21 08:34:45;;;;;;;23.20;10.63;;;;;;;;;;5056752;28;20138;-75
2022/12/21 08:37:11;;;;;;;24.92;9.68;;;;;;;;;;5065854;28;20454;-75
2022/12/21 08:39:40;;;;;;;23.02;10.85;;;;;;;;;;5069717;28;20051;-76
2022/12/21 08:42:06;;;;;;;18.77;11.13;;;;;;;;;;5065944;28;20868;-76
2022/12/21 08:44:32;;;;;;;23.92;10.23;;;;;;;;;;5072208;28;20492;-76
2022/12/21 08:46:58;;;;;;;25.40;11.23;;;;;;;;;;5069146;28;20052;-76
2022/12/21 08:49:24;;;;;;;27.90;11.68;;;;;;;;;;5064326;28;20048;-75
2022/12/21 08:51:50;;;;;;;24.20;11.07;;;;;;;;;;5068304;28;20353;-75
2022/12/21 08:54:16;;;;;;;27.77;11.15;;;;;;;;;;5059445;28;20041;-76
2022/12/21 08:56:42;;;;;;;25.92;11.25;;;;;;;;;;5068219;28;20095;-75
2022/12/21 08:59:09;;;;;;;24.00;12.63;;;;;;;;;;5057271;28;20110;-76
2022/12/21 09:01:36;;;;;;;25.05;11.98;;;;;;;;;;5060472;28;20080;-75
2022/12/21 09:04:02;;;;;;;27.45;12.38;;;;;;;;;;5062659;28;20779;-75
2022/12/21 09:06:29;;;;;;;24.23;12.25;;;;;;;;;;5061477;28;20044;-76
2022/12/21 09:08:56;;;;;;;24.73;13.27;;;;;;;;;;5057457;28;20072;-76
2022/12/21 09:11:27;;;;;;;26.58;12.65;;;;;;;;;;5061120;28;20507;-76
2022/12/21 09:13:53;;;;;;;19.98;11.75;;;;;;;;;;5064114;28;20052;-76
2022/12/21 09:16:23;;;;;;;24.08;12.15;;;;;;;;;;5060555;28;20054;-76
2022/12/21 09:18:49;;;;;;;28.52;13.05;;;;;;;;;;5067661;28;20055;-75
2022/12/21 09:21:18;;;;;;;27.90;14.23;;;;;;;;;;5059235;28;20087;-75
2022/12/21 09:23:51;;;;;;;25.38;13.43;;;;;;;;;;5066197;28;20067;-75
2022/12/21 09:26:17;;;;;;;21.55;13.27;;;;;;;;;;5067600;28;20473;-76
2022/12/21 09:28:43;;;;;;;22.05;13.85;;;;;;;;;;5070728;28;20061;-75
2022/12/21 09:31:17;;;;;;;24.98;11.40;;;;;;;;;;5061761;28;20055;-75
2022/12/21 09:33:43;;;;;;;23.08;14.13;;;;;;;;;;5057079;28;20434;-76
2022/12/21 09:36:10;;;;;;;25.88;13.88;;;;;;;;;;5055068;28;20500;-75
2022/12/21 09:38:36;;;;;;;18.52;12.65;;;;;;;;;;5057516;28;20132;-76
2022/12/21 09:41:16;;;;;;;26.00;13.30;;;;;;;;;;5063384;28;20048;-76
2022/12/21 09:43:46;;;;;;;24.15;13.95;;;;;;;;;;5068230;28;20124;-76
2022/12/21 09:46:13;;;;;;;24.77;13.52;;;;;;;;;;5054045;28;20044;-75
2022/12/21 09:48:39;;;;;;;23.83;12.38;;;;;;;;;;5067307;28;20044;-75
2022/12/21 09:51:09;;;;;;;20.17;12.02;;;;;;;;;;5062992;28;20431;-76
2022/12/21 09:53:40;;;;;;;17.40;11.30;;;;;;;;;;5063613;28;20036;-76
2022/12/21 09:56:07;;;;;;;22.08;12.40;;;;;;;;;;5066815;28;20121;-76
2022/12/21 09:58:52;;;;;;;25.05;13.98;;;;;;;;;;5058926;28;20040;-76
2022/12/21 10:01:24;;;;;;;21.33;13.55;;;;;;;;;;5058114;28;20135;-76
2022/12/21 10:03:56;;;;;;;26.42;15.02;;;;;;;;;;5063820;28;20044;-76
2022/12/21 10:06:46;;;;;;;24.23;14.07;;;;;;;;;;5056171;28;20069;-76
2022/12/21 10:09:12;;;;;;;26.05;14.82;;;;;;;;;;5048992;28;20064;-76
2022/12/21 10:12:01;;;;;;;23.98;14.07;;;;;;;;;;5061779;28;20430;-75
2022/12/21 10:14:29;;;;;;;28.90;15.05;;;;;;;;;;5060957;28;20052;-76
2022/12/21 10:17:16;;;;;;;25.60;15.13;;;;;;;;;;5056840;28;20148;-75
2022/12/21 10:19:53;;;;;;;29.52;15.98;;;;;;;;;;5048523;28;20056;-76
2022/12/21 10:22:45;;;;;;;30.83;15.45;;;;;;;;;;5057670;28;20037;-76
2022/12/21 10:25:16;;;;;;;30.55;15.50;;;;;;;;;;5061270;28;20060;-76
2022/12/21 10:27:46;;;;;;;32.40;16.77;;;;;;;;;;5057965;28;20055;-75
2022/12/21 10:30:13;;;;;;;30.45;16.17;;;;;;;;;;5055488;28;20051;-76
2022/12/21 10:32:41;;;;;;;29.08;15.60;;;;;;;;;;5055473;28;20041;-77
2022/12/21 10:35:25;;;;;;;26.77;15.70;;;;;;;;;;5061089;28;20411;-76
2022/12/21 10:37:53;;;;;;;27.08;15.27;;;;;;;;;;5059529;28;20052;-76
2022/12/21 10:40:20;;;;;;;25.60;14.38;;;;;;;;;;5057723;28;20033;-76
2022/12/21 10:42:51;;;;;;;26.35;15.68;;;;;;;;;;5062470;28;20040;-76
2022/12/21 10:45:19;;;;;;;28.48;15.10;;;;;;;;;;5065059;28;20503;-76
2022/12/21 10:47:45;;;;;;;23.85;14.65;;;;;;;;;;5064429;28;20043;-76
2022/12/21 10:50:16;;;;;;;35.13;15.60;;;;;;;;;;5060751;28;20053;-76
2022/12/21 10:52:43;;;;;;;31.52;16.35;;;;;;;;;;5064376;28;20045;-76
2022/12/21 10:55:18;;;;;;;25.33;16.48;;;;;;;;;;5068306;28;20642;-76
2022/12/21 10:57:45;;;;;;;32.55;15.77;;;;;;;;;;5057229;28;20033;-76
2022/12/21 11:00:38;;;;;;;26.42;16.40;;;;;;;;;;5064840;28;20496;-76
2022/12/21 11:03:05;;;;;;;27.83;17.80;;;;;;;;;;5062767;28;20048;-76
2022/12/21 11:05:36;;;;;;;32.92;17.25;;;;;;;;;;5068399;28;20554;-76
2022/12/21 11:08:12;;;;;;;29.17;16.92;;;;;;;;;;5069375;28;20132;-76
2022/12/21 11:10:38;;;;;;;29.05;17.52;;;;;;;;;;5059914;28;20511;-76
2022/12/21 11:13:07;;;;;;;28.58;17.52;;;;;;;;;;5060393;28;20040;-76
2022/12/21 11:15:34;;;;;;;27.48;17.45;;;;;;;;;;5071689;28;20045;-76
2022/12/21 11:18:00;;;;;;;31.05;17.75;;;;;;;;;;5067228;28;20059;-76
2022/12/21 11:20:26;;;;;;;32.97;18.33;;;;;;;;;;5071398;28;20135;-76
2022/12/21 11:22:55;;;;;;;33.30;19.10;;;;;;;;;;5065972;28;20048;-77
2022/12/21 11:25:22;;;;;;;34.25;19.27;;;;;;;;;;5064492;28;20049;-76
2022/12/21 11:27:49;;;;;;;30.40;17.05;;;;;;;;;;5045891;28;20075;-76
2022/12/21 11:30:22;;;;;;;33.47;18.30;;;;;;;;;;5064433;28;20041;-76
2022/12/21 11:32:50;;;;;;;37.15;18.40;;;;;;;;;;5058571;28;20044;-76
2022/12/21 11:35:19;;;;;;;35.05;17.58;;;;;;;;;;5065149;28;20056;-76
2022/12/21 11:37:49;;;;;;;28.92;18.23;;;;;;;;;;5066483;28;20056;-76
2022/12/21 11:40:23;;;;;;;33.28;19.17;;;;;;;;;;5064344;28;20040;-77
2022/12/21 11:42:52;;;;;;;31.88;16.88;;;;;;;;;;5054831;28;20063;-77
2022/12/21 11:45:21;;;;;;;38.65;20.83;;;;;;;;;;5065000;28;20080;-76
2022/12/21 11:48:05;;;;;;;30.73;18.67;;;;;;;;;;5059197;28;20056;-76
2022/12/21 11:50:44;;;;;;;30.13;17.17;;;;;;;;;;5062092;28;20052;-76
2022/12/21 11:53:23;;;;;;;33.25;17.73;;;;;;;;;;5059605;28;20057;-76
2022/12/21 11:55:49;;;;;;;26.95;15.23;;;;;;;;;;5066347;28;20100;-76
2022/12/21 11:58:18;;;;;;;31.65;18.05;;;;;;;;;;5066836;28;20037;-76
2022/12/21 12:00:55;;;;;;;32.95;18.63;;;;;;;;;;5060901;28;20048;-76
2022/12/21 12:03:33;;;;;;;35.22;18.48;;;;;;;;;;5059104;28;20048;-76
2022/12/21 12:06:02;;;;;;;29.70;17.40;;;;;;;;;;5050087;28;20484;-76
2022/12/21 12:08:43;;;;;;;28.38;17.92;;;;;;;;;;5061184;28;20044;-77
2022/12/21 12:11:24;;;;;;;29.90;18.15;;;;;;;;;;5063554;28;20047;-77
2022/12/21 12:14:06;;;;;;;29.73;18.48;;;;;;;;;;5059203;28;20483;-78
2022/12/21 12:16:37;;;;;;;33.15;18.90;;;;;;;;;;5066163;28;20500;-75
2022/12/21 12:19:12;;;;;;;34.65;18.92;;;;;;;;;;5062605;28;20040;-77
2022/12/21 12:21:50;;;;;;;35.42;20.30;;;;;;;;;;5062374;28;20037;-76
2022/12/21 12:24:29;;;;;;;34.22;19.17;;;;;;;;;;5064744;28;20182;-77
2022/12/21 12:26:55;;;;;;;30.52;17.65;;;;;;;;;;5061394;28;20039;-77
2022/12/21 12:29:29;;;;;;;31.33;19.35;;;;;;;;;;5061730;28;20049;-78
2022/12/21 12:32:11;;;;;;;36.75;20.90;;;;;;;;;;5059416;28;20052;-77
2022/12/21 12:34:47;;;;;;;31.83;19.42;;;;;;;;;;5065031;28;20123;-74
2022/12/21 12:37:25;;;;;;;33.17;19.58;;;;;;;;;;5065497;28;20048;-75
2022/12/21 12:40:06;;;;;;;31.10;19.58;;;;;;;;;;5067083;28;20048;-73
2022/12/21 12:42:41;;;;;;;30.88;18.52;;;;;;;;;;5062590;28;20052;-73
2022/12/21 12:45:26;;;;;;;34.53;19.52;;;;;;;;;;5065687;28;20059;-74
2022/12/21 12:47:55;;;;;;;29.00;20.10;;;;;;;;;;5069001;28;20116;-74
2022/12/21 12:50:40;;;;;;;34.50;21.35;;;;;;;;;;5065000;28;20048;-73
2022/12/21 12:53:25;;;;;;;34.80;19.73;;;;;;;;;;5071879;28;20056;-75
2022/12/21 12:55:59;;;;;;;32.00;20.65;;;;;;;;;;5073475;28;20465;-75
2022/12/21 12:58:44;;;;;;;30.08;19.38;;;;;;;;;;5062356;28;20045;-74
2022/12/21 13:01:16;;;;;;;38.15;18.63;;;;;;;;;;5059464;28;20080;-75
2022/12/21 13:03:54;;;;;;;29.10;17.58;;;;;;;;;;5058796;28;20350;-75
2022/12/21 13:06:20;;;;;;;32.00;18.35;;;;;;;;;;5061422;28;20045;-75
2022/12/21 13:09:16;;;;;;;26.92;15.95;;;;;;;;;;5069690;28;20033;-75
2022/12/21 13:11:42;;;;;;;32.60;18.08;;;;;;;;;;5045975;28;20114;-76
2022/12/21 13:14:27;;;;;;;25.48;15.73;;;;;;;;;;5067626;28;20048;-75
2022/12/21 13:17:11;;;;;;;23.50;16.08;;;;;;;;;;5065418;28;20040;-75
2022/12/21 13:19:39;;;;;;;23.35;14.30;;;;;;;;;;5068507;28;20047;-75
2022/12/21 13:22:06;;;;;;;28.23;15.75;;;;;;;;;;5068557;28;20036;-76
2022/12/21 13:24:38;;;;;;;31.35;14.93;;;;;;;;;;5066133;28;20066;-75
2022/12/21 13:27:07;;;;;;;21.52;13.85;;;;;;;;;;5068938;28;20048;-75
2022/12/21 13:29:53;;;;;;;27.33;15.38;;;;;;;;;;5065110;28;20055;-75
2022/12/21 13:32:21;;;;;;;20.02;13.40;;;;;;;;;;5062624;28;20547;-73
2022/12/21 13:34:57;;;;;;;25.52;15.15;;;;;;;;;;5065319;28;20039;-74
2022/12/21 13:37:23;;;;;;;22.70;13.95;;;;;;;;;;5059369;28;20064;-74
2022/12/21 13:40:03;;;;;;;27.83;14.95;;;;;;;;;;5062916;28;20400;-75
2022/12/21 13:42:58;;;;;;;26.25;15.23;;;;;;;;;;5063637;28;20053;-75
2022/12/21 13:45:39;;;;;;;25.88;14.48;;;;;;;;;;4996133;28;20077;-75
2022/12/21 13:48:10;;;;;;;25.00;14.25;;;;;;;;;;5068478;28;20094;-75
2022/12/21 13:50:55;;;;;;;27.50;15.63;;;;;;;;;;5057933;28;20068;-74
2022/12/21 13:53:34;;;;;;;27.30;15.15;;;;;;;;;;5064536;28;20052;-75
2022/12/21 13:56:00;;;;;;;31.30;16.70;;;;;;;;;;5066570;28;20131;-75
2022/12/21 13:58:33;;;;;;;25.80;16.00;;;;;;;;;;5063049;28;20139;-74
2022/12/21 14:00:59;;;;;;;26.00;14.80;;;;;;;;;;5061853;28;20560;-75
2022/12/21 14:03:34;;;;;;;29.27;16.42;;;;;;;;;;5064132;28;20071;-75
2022/12/21 14:06:10;;;;;;;33.35;18.60;;;;;;;;;;5067517;28;20044;-75
2022/12/21 14:08:45;;;;;;;28.23;16.52;;;;;;;;;;5068789;28;20051;-75
2022/12/21 14:11:11;;;;;;;28.13;16.48;;;;;;;;;;5068248;28;20044;-75
2022/12/21 14:13:46;;;;;;;33.90;18.42;;;;;;;;;;5066316;28;20369;-75
2022/12/21 14:16:17;;;;;;;31.23;18.20;;;;;;;;;;5070225;28;20069;-75
2022/12/21 14:18:43;;;;;;;31.10;17.80;;;;;;;;;;5055560;28;20397;-75
2022/12/21 14:21:16;;;;;;;29.02;18.70;;;;;;;;;;5065616;28;20485;-75
2022/12/21 14:24:00;;;;;;;29.38;17.15;;;;;;;;;;5066805;28;20119;-75
2022/12/21 14:26:34;;;;;;;31.48;16.73;;;;;;;;;;5065409;28;20153;-74
2022/12/21 14:29:06;;;;;;;27.63;17.73;;;;;;;;;;5064907;28;20044;-75
2022/12/21 14:31:32;;;;;;;30.98;18.58;;;;;;;;;;5060649;28;20045;-75
2022/12/21 14:33:59;;;;;;;26.83;16.02;;;;;;;;;;5064904;28;20036;-75
2022/12/21 14:36:31;;;;;;;24.30;15.60;;;;;;;;;;5069857;28;20487;-75
2022/12/21 14:39:01;;;;;;;22.83;14.50;;;;;;;;;;5070533;28;20072;-75
2022/12/21 14:41:34;;;;;;;25.33;15.05;;;;;;;;;;5069660;28;20067;-76
2022/12/21 14:44:21;;;;;;;24.60;16.58;;;;;;;;;;5062031;28;20052;-75